Time;durP1;ratioP1;P1;durP2;ratioP2;P2;SDS_P1;SDS_P2;PMS_P1;PMS_P2;Temp;Humidity;BMP_temperature;BMP_pressure;BME280_temperature;BME280_humidity;BME280_pressure;Samples;Min_cycle;Max_cycle;Signal;HPM_P1;HPM_P2
2023/06/17 00:00:33;;;;;;;9.97;8.97;;;14.90;99.90;;;;;;5095605;28;20457;-66
2023/06/17 00:03:00;;;;;;;10.50;8.90;;;14.80;99.90;;;;;;5095511;28;20790;-66
2023/06/17 00:05:27;;;;;;;10.13;9.03;;;14.80;99.90;;;;;;5095696;28;20481;-66
2023/06/17 00:07:54;;;;;;;10.50;9.47;;;14.80;99.90;;;;;;5095859;28;20461;-66
2023/06/17 00:10:22;;;;;;;10.77;9.70;;;14.80;99.90;;;;;;5095483;28;20457;-66
2023/06/17 00:12:49;;;;;;;10.67;9.67;;;14.90;99.90;;;;;;5095391;28;20576;-66
2023/06/17 00:15:18;;;;;;;10.53;9.50;;;14.80;99.90;;;;;;5095671;28;20450;-66
2023/06/17 00:17:46;;;;;;;9.80;8.87;;;14.80;99.90;;;;;;5095423;28;20458;-66
2023/06/17 00:20:14;;;;;;;10.53;9.07;;;14.80;99.90;;;;;;5095635;28;20510;-66
2023/06/17 00:22:43;;;;;;;11.73;9.33;;;14.80;99.90;;;;;;5095729;28;20548;-66
2023/06/17 00:25:11;;;;;;;9.53;8.63;;;14.80;99.90;;;;;;5095138;28;20481;-66
2023/06/17 00:27:39;;;;;;;9.63;8.63;;;14.90;99.90;;;;;;5095271;28;20453;-66
2023/06/17 00:30:08;;;;;;;9.50;8.50;;;14.90;99.90;;;;;;5095302;28;20456;-66
2023/06/17 00:32:35;;;;;;;9.67;8.67;;;14.90;99.90;;;;;;5095434;28;20457;-66
2023/06/17 00:35:02;;;;;;;9.00;8.10;;;14.80;99.90;;;;;;5094996;28;20460;-66
2023/06/17 00:37:29;;;;;;;9.33;8.40;;;14.80;99.90;;;;;;5095762;28;20616;-66
2023/06/17 00:39:56;;;;;;;8.90;8.10;;;14.80;99.90;;;;;;5095290;28;20453;-66
2023/06/17 00:42:23;;;;;;;12.20;10.30;;;14.80;99.90;;;;;;5095277;28;20457;-66
2023/06/17 00:44:52;;;;;;;10.27;9.27;;;14.70;99.90;;;;;;5095089;28;20463;-66
2023/06/17 00:47:19;;;;;;;10.37;9.13;;;14.70;99.90;;;;;;5095300;28;20465;-66
2023/06/17 00:49:47;;;;;;;10.00;9.00;;;14.80;99.90;;;;;;5095172;28;20453;-66
2023/06/17 00:52:15;;;;;;;11.90;9.93;;;14.80;99.90;;;;;;5095034;28;20930;-66
2023/06/17 00:54:43;;;;;;;10.70;9.70;;;14.80;99.90;;;;;;5095105;28;20475;-66
2023/06/17 00:57:14;;;;;;;10.70;9.43;;;14.80;99.90;;;;;;5094681;28;20544;-66
2023/06/17 00:59:44;;;;;;;11.30;10.27;;;14.80;99.90;;;;;;5095406;28;20529;-65
2023/06/17 01:02:15;;;;;;;10.80;9.57;;;14.80;99.90;;;;;;5095322;28;20468;-66
2023/06/17 01:04:46;;;;;;;10.93;9.80;;;14.70;99.90;;;;;;5094923;28;20850;-67
2023/06/17 01:07:24;;;;;;;9.93;8.97;;;14.80;99.90;;;;;;5094907;28;20533;-67
2023/06/17 01:10:02;;;;;;;11.93;10.13;;;14.70;99.90;;;;;;5094999;28;20451;-68
2023/06/17 01:12:33;;;;;;;11.10;10.00;;;14.70;99.90;;;;;;5094642;28;20481;-68
2023/06/17 01:15:01;;;;;;;10.73;9.63;;;14.70;99.90;;;;;;5094722;28;20499;-66
2023/06/17 01:17:29;;;;;;;22.07;10.57;;;14.80;99.90;;;;;;5094428;28;20461;-67
2023/06/17 01:19:57;;;;;;;10.90;9.90;;;14.80;99.90;;;;;;5094851;28;20926;-68
2023/06/17 01:22:25;;;;;;;11.10;9.87;;;14.80;99.90;;;;;;5094741;28;20552;-68
2023/06/17 01:24:56;;;;;;;11.70;10.50;;;14.70;99.90;;;;;;5094723;28;20737;-67
2023/06/17 01:27:23;;;;;;;11.40;10.20;;;14.70;99.90;;;;;;5094629;28;20468;-65
2023/06/17 01:29:50;;;;;;;12.47;10.20;;;14.70;99.90;;;;;;5093895;28;20493;-66
2023/06/17 01:32:19;;;;;;;13.57;11.40;;;14.70;99.90;;;;;;5095082;28;20535;-67
2023/06/17 01:34:56;;;;;;;11.23;10.13;;;14.70;99.90;;;;;;5094656;28;20481;-67
2023/06/17 01:37:30;;;;;;;13.63;11.50;;;14.70;99.90;;;;;;5094035;28;20452;-67
2023/06/17 01:40:04;;;;;;;11.77;10.20;;;14.80;99.90;;;;;;5094331;28;20541;-67
2023/06/17 01:42:34;;;;;;;11.77;10.33;;;14.80;99.90;;;;;;5094288;28;20438;-67
2023/06/17 01:45:05;;;;;;;12.80;11.40;;;14.90;99.90;;;;;;5094890;28;20711;-67
2023/06/17 01:47:33;;;;;;;12.47;10.30;;;14.90;99.90;;;;;;5094532;28;20442;-67
2023/06/17 01:50:00;;;;;;;16.57;11.53;;;14.90;99.90;;;;;;5094568;28;20445;-67
2023/06/17 01:52:27;;;;;;;18.80;10.70;;;14.90;99.90;;;;;;5094071;28;20457;-67
2023/06/17 01:54:57;;;;;;;11.67;10.47;;;14.90;99.90;;;;;;5093937;28;20467;-67
2023/06/17 01:57:28;;;;;;;14.23;10.97;;;14.90;99.90;;;;;;5094286;28;20453;-67
2023/06/17 01:59:56;;;;;;;12.83;10.93;;;14.90;99.90;;;;;;5093908;28;20496;-67
2023/06/17 02:02:25;;;;;;;13.90;11.57;;;14.90;99.90;;;;;;5094339;28;20467;-67
2023/06/17 02:04:52;;;;;;;11.27;10.07;;;14.90;99.90;;;;;;5094231;28;20463;-67
2023/06/17 02:07:25;;;;;;;10.83;9.63;;;14.90;99.90;;;;;;5094157;28;20559;-67
2023/06/17 02:09:52;;;;;;;10.80;9.80;;;14.80;99.90;;;;;;5094173;28;20448;-67
2023/06/17 02:12:19;;;;;;;12.00;10.13;;;14.80;99.90;;;;;;5093871;28;20499;-67
2023/06/17 02:14:47;;;;;;;10.40;9.33;;;14.80;99.90;;;;;;5094125;28;20502;-67
2023/06/17 02:17:15;;;;;;;12.87;10.73;;;14.80;99.90;;;;;;5094232;28;20503;-67
2023/06/17 02:19:42;;;;;;;11.27;10.17;;;14.90;99.90;;;;;;5094207;28;20464;-67
2023/06/17 02:22:08;;;;;;;13.67;12.30;;;14.90;99.90;;;;;;5094129;28;20453;-67
2023/06/17 02:24:35;;;;;;;11.30;10.20;;;14.80;99.90;;;;;;5093923;28;20556;-67
2023/06/17 02:27:02;;;;;;;14.20;10.37;;;14.80;99.90;;;;;;5094104;28;20559;-67
2023/06/17 02:29:32;;;;;;;11.97;10.87;;;14.80;99.90;;;;;;5093824;28;20918;-67
2023/06/17 02:32:00;;;;;;;12.40;11.20;;;14.80;99.90;;;;;;5094176;28;20962;-68
2023/06/17 02:34:27;;;;;;;12.10;10.80;;;14.80;99.90;;;;;;5094021;28;20537;-67
2023/06/17 02:36:56;;;;;;;16.03;11.40;;;14.80;99.90;;;;;;5094546;28;20544;-67
2023/06/17 02:39:23;;;;;;;14.30;11.87;;;14.80;99.90;;;;;;5096424;28;20461;-67
2023/06/17 02:41:50;;;;;;;12.60;11.40;;;14.80;99.90;;;;;;5099003;28;20453;-67
2023/06/17 02:44:17;;;;;;;12.20;11.00;;;14.80;99.90;;;;;;5098707;28;20488;-68
2023/06/17 02:46:44;;;;;;;12.87;11.27;;;14.80;99.90;;;;;;5098127;28;20485;-66
2023/06/17 02:49:13;;;;;;;12.27;11.10;;;14.90;99.90;;;;;;5098336;28;20452;-67
2023/06/17 02:51:40;;;;;;;12.00;10.70;;;14.90;99.90;;;;;;5099506;28;20457;-67
2023/06/17 02:54:07;;;;;;;13.20;11.80;;;14.90;99.90;;;;;;5099121;28;20940;-67
2023/06/17 02:56:37;;;;;;;14.20;12.37;;;14.90;99.90;;;;;;5099157;28;20449;-67
2023/06/17 02:59:08;;;;;;;12.97;11.77;;;14.90;99.90;;;;;;5100866;28;20453;-66
2023/06/17 03:01:39;;;;;;;12.80;11.27;;;15.00;99.90;;;;;;5099993;28;20453;-66
2023/06/17 03:04:06;;;;;;;12.50;11.10;;;14.90;99.90;;;;;;5101950;28;20457;-66
2023/06/17 03:06:35;;;;;;;12.80;11.50;;;14.90;99.90;;;;;;5101778;28;20568;-66
2023/06/17 03:09:03;;;;;;;12.67;11.40;;;14.90;99.90;;;;;;5102299;28;20457;-66
2023/06/17 03:11:30;;;;;;;13.50;12.20;;;14.90;99.90;;;;;;5103049;28;20560;-66
2023/06/17 03:13:57;;;;;;;14.27;12.77;;;14.90;99.90;;;;;;5103391;28;20536;-66
2023/06/17 03:16:24;;;;;;;11.90;10.90;;;14.90;99.90;;;;;;5100409;28;20459;-66
2023/06/17 03:18:51;;;;;;;13.33;11.87;;;15.00;99.90;;;;;;5098649;28;20553;-66
2023/06/17 03:21:18;;;;;;;12.67;11.47;;;15.00;99.90;;;;;;5097415;28;20463;-66
2023/06/17 03:23:48;;;;;;;13.57;12.07;;;15.00;99.90;;;;;;5096852;28;20540;-66
2023/06/17 03:26:15;;;;;;;12.93;11.63;;;15.00;99.90;;;;;;5096910;28;20477;-66
2023/06/17 03:28:42;;;;;;;16.73;12.90;;;15.00;99.90;;;;;;5097087;28;20968;-66
2023/06/17 03:31:10;;;;;;;14.53;11.30;;;15.00;99.90;;;;;;5096521;28;20456;-66
2023/06/17 03:33:37;;;;;;;16.17;13.13;;;15.00;99.90;;;;;;5096722;28;20544;-66
2023/06/17 03:36:04;;;;;;;13.97;12.57;;;14.90;99.90;;;;;;5096716;28;20540;-66
2023/06/17 03:38:31;;;;;;;14.07;12.57;;;14.90;99.90;;;;;;5096438;28;20493;-66
2023/06/17 03:40:59;;;;;;;14.13;12.63;;;14.90;99.90;;;;;;5096326;28;20457;-66
2023/06/17 03:43:26;;;;;;;14.00;11.87;;;15.00;99.90;;;;;;5096284;28;20970;-66
2023/06/17 03:45:53;;;;;;;13.50;12.20;;;15.00;99.90;;;;;;5096331;28;20881;-66
2023/06/17 03:48:20;;;;;;;13.53;12.13;;;15.00;99.90;;;;;;5096090;28;20492;-66
2023/06/17 03:50:48;;;;;;;14.53;12.33;;;15.00;99.90;;;;;;5096476;28;20945;-66
2023/06/17 03:53:15;;;;;;;13.50;12.20;;;15.10;99.90;;;;;;5095940;28;20821;-66
2023/06/17 03:55:41;;;;;;;13.90;12.40;;;15.00;99.90;;;;;;5096394;28;20930;-66
2023/06/17 03:58:14;;;;;;;14.53;13.10;;;15.00;99.90;;;;;;5096043;28;20513;-66
2023/06/17 04:00:42;;;;;;;12.93;11.50;;;15.00;99.90;;;;;;5096723;28;20438;-67
2023/06/17 04:03:10;;;;;;;13.77;12.47;;;15.00;99.90;;;;;;5096042;28;20962;-67
2023/06/17 04:05:37;;;;;;;14.63;13.30;;;15.00;99.90;;;;;;5096309;28;20457;-67
2023/06/17 04:08:07;;;;;;;15.10;13.60;;;15.00;99.90;;;;;;5095705;28;20582;-67
2023/06/17 04:10:34;;;;;;;16.13;13.40;;;15.00;99.90;;;;;;5096039;28;20475;-67
2023/06/17 04:13:01;;;;;;;14.90;13.60;;;15.10;99.90;;;;;;5095535;28;20538;-67
2023/06/17 04:15:29;;;;;;;14.47;13.10;;;15.10;99.90;;;;;;5095875;28;20485;-67
2023/06/17 04:17:56;;;;;;;14.50;13.00;;;15.20;99.90;;;;;;5095809;28;20776;-67
2023/06/17 04:20:25;;;;;;;16.57;14.37;;;15.20;99.90;;;;;;5095712;28;20551;-68
2023/06/17 04:22:52;;;;;;;15.57;13.90;;;15.20;99.90;;;;;;5095859;28;20777;-67
2023/06/17 04:25:20;;;;;;;19.43;14.70;;;15.10;99.90;;;;;;5095543;28;20449;-67
2023/06/17 04:27:48;;;;;;;20.23;18.13;;;15.10;99.90;;;;;;5095287;28;20984;-67
2023/06/17 04:30:16;;;;;;;19.33;17.30;;;15.20;99.90;;;;;;5095650;28;20454;-67
2023/06/17 04:32:44;;;;;;;18.63;16.63;;;15.20;99.90;;;;;;5095570;28;20535;-67
2023/06/17 04:35:12;;;;;;;18.10;16.30;;;15.20;99.90;;;;;;5095582;28;20453;-67
2023/06/17 04:37:40;;;;;;;18.93;16.93;;;15.30;99.90;;;;;;5095526;28;20450;-67
2023/06/17 04:40:10;;;;;;;20.10;18.10;;;15.30;99.90;;;;;;5095217;28;20461;-67
2023/06/17 04:42:40;;;;;;;20.53;18.33;;;15.30;99.90;;;;;;5095660;28;20464;-67
2023/06/17 04:45:08;;;;;;;18.67;16.67;;;15.40;99.90;;;;;;5095662;28;20499;-67
2023/06/17 04:47:35;;;;;;;19.90;17.90;;;15.40;99.90;;;;;;5095344;28;20595;-67
2023/06/17 04:50:03;;;;;;;19.40;17.40;;;15.50;99.90;;;;;;5095469;28;20453;-67
2023/06/17 04:52:31;;;;;;;19.17;17.17;;;15.50;99.90;;;;;;5095138;28;20514;-67
2023/06/17 04:54:59;;;;;;;19.10;17.20;;;15.50;99.90;;;;;;5095347;28;20531;-67
2023/06/17 04:57:26;;;;;;;21.13;18.10;;;15.60;99.90;;;;;;5095216;28;20458;-67
2023/06/17 04:59:53;;;;;;;18.80;17.00;;;15.60;99.90;;;;;;5095130;28;20453;-67
2023/06/17 05:02:20;;;;;;;21.40;17.90;;;15.70;99.90;;;;;;5095011;28;20954;-67
2023/06/17 05:04:46;;;;;;;20.63;18.43;;;15.70;99.90;;;;;;5094034;28;20459;-67
2023/06/17 05:07:15;;;;;;;20.83;18.73;;;15.70;99.90;;;;;;5095161;28;20639;-67
2023/06/17 05:09:42;;;;;;;20.43;18.40;;;15.80;99.90;;;;;;5095110;28;20819;-67
2023/06/17 05:12:09;;;;;;;20.00;18.00;;;15.80;99.90;;;;;;5094665;28;20499;-67
2023/06/17 05:14:35;;;;;;;22.27;20.07;;;15.90;99.90;;;;;;5095201;28;20463;-67
2023/06/17 05:17:02;;;;;;;18.73;16.83;;;15.90;99.90;;;;;;5095065;28;20560;-67
2023/06/17 05:19:29;;;;;;;20.03;18.10;;;15.90;99.90;;;;;;5094928;28;20852;-67
2023/06/17 05:21:56;;;;;;;18.27;16.40;;;16.00;99.90;;;;;;5094887;28;20530;-67
2023/06/17 05:24:24;;;;;;;23.67;21.27;;;16.10;99.90;;;;;;5094625;28;20917;-67
2023/06/17 05:26:52;;;;;;;18.97;17.07;;;16.10;99.90;;;;;;5094405;28;20573;-67
2023/06/17 05:29:18;;;;;;;19.23;17.30;;;16.20;99.90;;;;;;5094779;28;20546;-67
2023/06/17 05:31:45;;;;;;;18.03;16.33;;;16.30;99.90;;;;;;5095404;28;20983;-67
2023/06/17 05:34:12;;;;;;;17.67;16.07;;;16.40;99.90;;;;;;5103708;28;20513;-67
2023/06/17 05:36:40;;;;;;;17.37;15.57;;;16.40;99.90;;;;;;5102743;28;20459;-67
2023/06/17 05:39:07;;;;;;;18.17;16.37;;;16.50;99.90;;;;;;5094598;28;20453;-67
2023/06/17 05:41:35;;;;;;;17.90;15.63;;;16.50;99.90;;;;;;5094770;28;20544;-67
2023/06/17 05:44:02;;;;;;;16.57;14.83;;;16.50;99.90;;;;;;5094624;28;20498;-67
2023/06/17 05:46:28;;;;;;;15.97;14.47;;;16.60;99.90;;;;;;5094240;28;20453;-67
2023/06/17 05:48:55;;;;;;;18.10;16.20;;;16.60;99.90;;;;;;5094717;28;20503;-67
2023/06/17 05:51:22;;;;;;;17.50;15.80;;;16.70;99.90;;;;;;5094164;28;20985;-67
2023/06/17 05:53:50;;;;;;;14.67;13.13;;;16.70;99.90;;;;;;5094046;28;20541;-67
2023/06/17 05:56:20;;;;;;;17.87;16.07;;;16.70;99.90;;;;;;5094536;28;20560;-67
2023/06/17 05:58:48;;;;;;;16.77;15.07;;;16.70;99.90;;;;;;5094450;28;20468;-67
2023/06/17 06:01:15;;;;;;;18.97;15.27;;;16.70;99.90;;;;;;5094337;28;20463;-67
2023/06/17 06:03:42;;;;;;;17.80;16.10;;;16.80;99.90;;;;;;5094409;28;20479;-67
2023/06/17 06:06:09;;;;;;;18.67;16.87;;;16.80;99.90;;;;;;5094285;28;20552;-67
2023/06/17 06:08:36;;;;;;;17.00;15.40;;;16.80;99.90;;;;;;5094547;28;20756;-67
2023/06/17 06:11:03;;;;;;;17.77;15.97;;;16.80;99.90;;;;;;5094438;28;20461;-67
2023/06/17 06:13:30;;;;;;;18.43;16.43;;;16.80;99.90;;;;;;5094196;28;20564;-67
2023/06/17 06:15:58;;;;;;;18.93;17.00;;;16.80;99.90;;;;;;5096449;28;21005;-67
2023/06/17 06:18:25;;;;;;;18.53;16.70;;;16.70;99.90;;;;;;5098392;28;20461;-67
2023/06/17 06:20:52;;;;;;;25.80;22.83;;;16.70;99.90;;;;;;5097859;28;20457;-67
2023/06/17 06:23:19;;;;;;;20.27;18.27;;;16.70;99.90;;;;;;5097980;28;20576;-67
2023/06/17 06:25:46;;;;;;;18.73;17.00;;;16.70;99.90;;;;;;5097897;28;20518;-68
2023/06/17 06:28:13;;;;;;;18.87;17.00;;;16.70;99.90;;;;;;5098093;28;20484;-68
2023/06/17 06:30:40;;;;;;;19.20;17.40;;;16.70;99.90;;;;;;5098244;28;20488;-68
2023/06/17 06:33:08;;;;;;;18.23;16.13;;;16.70;99.90;;;;;;5098038;28;20457;-66
2023/06/17 06:35:35;;;;;;;18.57;16.70;;;16.80;99.90;;;;;;5097699;28;20467;-66
2023/06/17 06:38:01;;;;;;;17.27;15.73;;;16.90;99.90;;;;;;5097892;28;20460;-66
2023/06/17 06:40:28;;;;;;;17.60;15.90;;;16.90;99.90;;;;;;5097942;28;20465;-68
2023/06/17 06:42:55;;;;;;;17.40;15.70;;;17.00;99.90;;;;;;5097715;28;20508;-66
2023/06/17 06:45:22;;;;;;;18.33;16.30;;;17.00;99.90;;;;;;5097995;28;20463;-66
2023/06/17 06:47:49;;;;;;;17.87;16.17;;;17.10;99.90;;;;;;5097791;28;20533;-67
2023/06/17 06:50:17;;;;;;;17.13;15.53;;;17.10;99.90;;;;;;5097860;28;20989;-67
2023/06/17 06:52:44;;;;;;;16.70;15.07;;;17.10;99.90;;;;;;5097726;28;20453;-66
2023/06/17 06:55:11;;;;;;;16.90;15.30;;;17.30;99.90;;;;;;5097228;28;20932;-66
2023/06/17 06:57:40;;;;;;;17.07;15.47;;;17.40;99.90;;;;;;5097663;28;20457;-66
2023/06/17 07:00:09;;;;;;;18.90;17.00;;;17.40;99.90;;;;;;5097282;28;20560;-66
2023/06/17 07:02:36;;;;;;;18.10;16.33;;;17.40;99.90;;;;;;5097444;28;20851;-67
2023/06/17 07:05:04;;;;;;;16.73;15.13;;;17.50;99.90;;;;;;5097361;28;20461;-67
2023/06/17 07:07:32;;;;;;;17.20;15.50;;;17.50;99.90;;;;;;5097245;28;20778;-67
2023/06/17 07:09:59;;;;;;;16.63;15.00;;;17.50;99.90;;;;;;5097351;28;20536;-67
2023/06/17 07:12:25;;;;;;;18.07;16.37;;;17.60;99.90;;;;;;5096868;28;20914;-67
2023/06/17 07:14:52;;;;;;;17.83;15.83;;;17.60;99.90;;;;;;5097026;28;20463;-67
2023/06/17 07:17:19;;;;;;;18.77;16.90;;;17.70;99.90;;;;;;5097311;28;20462;-67
2023/06/17 07:19:46;;;;;;;19.70;15.87;;;17.70;99.90;;;;;;5097351;28;20457;-67
2023/06/17 07:22:13;;;;;;;18.20;16.30;;;17.80;99.90;;;;;;5096886;28;20492;-69
2023/06/17 07:24:43;;;;;;;18.27;16.50;;;17.80;99.90;;;;;;5096877;28;20993;-67
2023/06/17 07:27:10;;;;;;;19.13;17.17;;;17.80;99.90;;;;;;5095785;28;20952;-67
2023/06/17 07:29:37;;;;;;;18.63;16.73;;;17.90;99.90;;;;;;5096660;28;20514;-67
2023/06/17 07:32:07;;;;;;;18.13;16.53;;;18.00;99.90;;;;;;5096997;28;20454;-67
2023/06/17 07:34:34;;;;;;;24.97;22.57;;;18.00;99.90;;;;;;5096583;28;20522;-70
2023/06/17 07:37:04;;;;;;;20.97;19.07;;;18.00;99.90;;;;;;5096530;28;20941;-67
2023/06/17 07:39:31;;;;;;;20.77;17.80;;;18.10;99.90;;;;;;5096958;28;20464;-67
2023/06/17 07:41:59;;;;;;;19.97;18.07;;;18.10;99.90;;;;;;5096602;28;20530;-68
2023/06/17 07:44:26;;;;;;;19.30;17.43;;;18.10;99.90;;;;;;5096483;28;20463;-67
2023/06/17 07:46:53;;;;;;;17.03;15.23;;;18.10;99.90;;;;;;5096689;28;20787;-67
2023/06/17 07:49:20;;;;;;;18.50;16.90;;;18.10;99.90;;;;;;5096730;28;20454;-67
2023/06/17 07:51:47;;;;;;;16.60;15.00;;;18.10;99.90;;;;;;5096306;28;20458;-67
2023/06/17 07:54:15;;;;;;;16.93;15.23;;;18.10;99.90;;;;;;5096435;28;20463;-67
2023/06/17 07:56:42;;;;;;;16.43;14.93;;;18.10;99.90;;;;;;5096318;28;20453;-67
2023/06/17 07:59:10;;;;;;;17.20;15.60;;;18.20;99.90;;;;;;5096243;28;20460;-67
2023/06/17 08:01:39;;;;;;;17.20;14.70;;;18.20;99.90;;;;;;5095986;28;20817;-67
2023/06/17 08:04:06;;;;;;;16.37;14.77;;;18.20;99.90;;;;;;5096344;28;20461;-67
2023/06/17 08:06:32;;;;;;;15.60;14.10;;;18.20;99.90;;;;;;5095829;28;20614;-66
2023/06/17 08:08:59;;;;;;;14.70;13.30;;;18.20;99.90;;;;;;5095908;28;20575;-67
2023/06/17 08:11:26;;;;;;;25.43;22.27;;;18.20;99.90;;;;;;5095792;28;20457;-67
2023/06/17 08:13:53;;;;;;;16.80;15.30;;;18.20;99.90;;;;;;5095906;28;20496;-66
2023/06/17 08:16:21;;;;;;;15.87;14.47;;;18.30;99.90;;;;;;5096261;28;20516;-67
2023/06/17 08:18:48;;;;;;;15.60;14.23;;;18.40;99.90;;;;;;5095718;28;20485;-67
2023/06/17 08:21:15;;;;;;;15.90;14.50;;;18.50;99.90;;;;;;5096084;28;20461;-67
2023/06/17 08:23:42;;;;;;;17.50;15.77;;;18.50;99.90;;;;;;5095481;28;20553;-67
2023/06/17 08:26:09;;;;;;;15.77;14.27;;;18.60;99.90;;;;;;5095560;28;20540;-66
2023/06/17 08:28:36;;;;;;;15.20;13.80;;;18.70;99.90;;;;;;5095688;28;20810;-67
2023/06/17 08:31:03;;;;;;;15.57;14.10;;;18.80;99.90;;;;;;5095412;28;20549;-67
2023/06/17 08:33:31;;;;;;;31.67;28.53;;;18.90;99.90;;;;;;5095641;28;20453;-67
2023/06/17 08:35:58;;;;;;;15.53;14.10;;;18.90;99.90;;;;;;5095219;28;20544;-67
2023/06/17 08:38:25;;;;;;;15.40;13.80;;;19.00;99.90;;;;;;5095176;28;21009;-66
2023/06/17 08:40:53;;;;;;;16.47;14.87;;;19.00;99.90;;;;;;5095244;28;20457;-67
2023/06/17 08:43:21;;;;;;;16.10;14.70;;;19.00;99.90;;;;;;5095728;28;20463;-66
2023/06/17 08:45:49;;;;;;;16.53;14.60;;;19.10;99.90;;;;;;5095257;28;20463;-66
2023/06/17 08:48:16;;;;;;;15.77;14.33;;;19.10;99.90;;;;;;5095395;28;20802;-66
2023/06/17 08:50:47;;;;;;;14.30;12.90;;;19.20;99.90;;;;;;5095179;28;20486;-67
2023/06/17 08:53:17;;;;;;;14.30;13.00;;;19.20;99.90;;;;;;5095397;28;20788;-66
2023/06/17 08:55:44;;;;;;;13.40;12.23;;;19.30;99.90;;;;;;5094780;28;20452;-66
2023/06/17 08:58:11;;;;;;;13.83;12.50;;;19.30;99.90;;;;;;5094664;28;20449;-65
2023/06/17 09:00:38;;;;;;;16.83;15.27;;;19.40;99.90;;;;;;5095013;28;20855;-66
2023/06/17 09:03:08;;;;;;;15.53;14.10;;;19.40;99.90;;;;;;5095054;28;20812;-66
2023/06/17 09:05:37;;;;;;;14.43;13.13;;;19.50;99.90;;;;;;5094768;28;20485;-67
2023/06/17 09:08:05;;;;;;;15.23;13.60;;;19.50;99.90;;;;;;5094906;28;20482;-67
2023/06/17 09:10:43;;;;;;;16.37;14.37;;;19.60;99.90;;;;;;5094640;28;20453;-67
2023/06/17 09:13:10;;;;;;;15.83;14.37;;;19.70;99.90;;;;;;5094490;28;20485;-67
2023/06/17 09:15:40;;;;;;;14.80;13.40;;;19.70;99.90;;;;;;5094795;28;20853;-67
2023/06/17 09:18:07;;;;;;;16.17;14.57;;;19.80;99.90;;;;;;5094796;28;20866;-66
2023/06/17 09:20:37;;;;;;;15.27;13.87;;;19.90;99.90;;;;;;5094951;28;20512;-66
2023/06/17 09:23:05;;;;;;;15.30;13.70;;;19.90;99.90;;;;;;5095025;28;20540;-66
2023/06/17 09:25:35;;;;;;;13.20;12.10;;;20.00;99.90;;;;;;5094810;28;20544;-66
2023/06/17 09:28:03;;;;;;;13.03;11.93;;;20.10;99.90;;;;;;5095132;28;20461;-66
2023/06/17 09:30:29;;;;;;;13.70;12.50;;;20.10;99.90;;;;;;5094905;28;20620;-66
2023/06/17 09:32:56;;;;;;;14.97;12.10;;;20.10;99.90;;;;;;5095722;28;20464;-66
2023/06/17 09:35:23;;;;;;;13.80;12.60;;;20.10;99.90;;;;;;5101662;28;20453;-67
2023/06/17 09:37:52;;;;;;;13.67;12.37;;;20.00;99.90;;;;;;5098293;28;20478;-66
2023/06/17 09:40:21;;;;;;;13.10;11.97;;;19.90;99.90;;;;;;5094779;28;20465;-66
2023/06/17 09:42:50;;;;;;;19.40;17.70;;;19.90;99.90;;;;;;5094322;28;20757;-66
2023/06/17 09:45:24;;;;;;;18.27;16.40;;;19.80;99.90;;;;;;5094514;28;20488;-67
2023/06/17 09:47:55;;;;;;;16.70;15.03;;;19.80;99.90;;;;;;5094181;28;20462;-67
2023/06/17 09:50:24;;;;;;;17.17;15.67;;;19.80;99.90;;;;;;5093872;28;20620;-67
2023/06/17 09:52:54;;;;;;;14.87;13.57;;;19.80;99.90;;;;;;5094253;28;20833;-67
2023/06/17 09:55:23;;;;;;;14.07;12.87;;;20.00;99.90;;;;;;5094745;28;20457;-66
2023/06/17 09:57:53;;;;;;;14.07;12.67;;;20.10;99.90;;;;;;5094156;28;20457;-67
2023/06/17 10:00:23;;;;;;;14.47;13.10;;;20.20;99.90;;;;;;5094369;28;20445;-67
2023/06/17 10:02:50;;;;;;;14.20;12.97;;;20.30;99.90;;;;;;5094050;28;20467;-67
2023/06/17 10:05:20;;;;;;;14.13;12.90;;;20.40;99.90;;;;;;5093950;28;20925;-66
2023/06/17 10:07:47;;;;;;;14.23;12.67;;;20.40;99.90;;;;;;5093871;28;20472;-67
2023/06/17 10:10:15;;;;;;;14.73;13.33;;;20.50;99.90;;;;;;5093925;28;20768;-67
2023/06/17 10:12:45;;;;;;;13.63;12.43;;;20.60;99.90;;;;;;5094106;28;20564;-67
2023/06/17 10:15:13;;;;;;;11.57;10.67;;;20.60;99.90;;;;;;5094171;28;20841;-67
2023/06/17 10:17:43;;;;;;;12.10;11.10;;;20.70;99.90;;;;;;5094076;28;20714;-67
2023/06/17 10:20:12;;;;;;;12.10;11.10;;;20.80;99.90;;;;;;5093927;28;20441;-67
2023/06/17 10:22:40;;;;;;;12.70;11.70;;;20.70;99.90;;;;;;5093676;28;20453;-67
2023/06/17 10:25:10;;;;;;;16.20;14.70;;;20.70;99.90;;;;;;5093564;28;20914;-67
2023/06/17 10:27:37;;;;;;;13.97;12.53;;;20.80;99.90;;;;;;5093942;28;20860;-66
2023/06/17 10:30:23;;;;;;;15.57;14.17;;;20.80;99.90;;;;;;5093884;28;20460;-67
2023/06/17 10:32:53;;;;;;;16.17;14.57;;;20.90;99.90;;;;;;5093470;28;20890;-67
2023/06/17 10:35:20;;;;;;;12.80;11.60;;;21.00;99.90;;;;;;5093676;28;20457;-67
2023/06/17 10:37:48;;;;;;;12.93;11.70;;;21.10;99.90;;;;;;5093467;28;20452;-67
2023/06/17 10:40:25;;;;;;;18.43;16.70;;;21.20;99.90;;;;;;5093412;28;20464;-67
2023/06/17 10:43:14;;;;;;;11.57;10.47;;;21.30;99.90;;;;;;5093185;28;20514;-67
2023/06/17 10:45:52;;;;;;;18.60;16.70;;;21.50;99.90;;;;;;5091016;28;20467;-67
2023/06/17 10:48:24;;;;;;;12.80;11.60;;;21.70;99.90;;;;;;5093612;28;20475;-67
2023/06/17 10:50:56;;;;;;;12.07;11.07;;;21.90;99.90;;;;;;5093576;28;20494;-66
2023/06/17 10:53:28;;;;;;;9.83;9.03;;;22.10;99.90;;;;;;5093898;28;20461;-67
2023/06/17 10:55:56;;;;;;;14.10;12.70;;;22.20;99.90;;;;;;5093663;28;20929;-67
2023/06/17 10:58:23;;;;;;;10.30;9.53;;;22.40;99.90;;;;;;5093910;28;20472;-67
2023/06/17 11:01:02;;;;;;;10.57;9.50;;;22.50;99.90;;;;;;5093771;28;20475;-67
2023/06/17 11:03:29;;;;;;;12.00;9.10;;;22.60;99.90;;;;;;5096790;28;20445;-67
2023/06/17 11:06:00;;;;;;;9.77;8.87;;;22.70;99.90;;;;;;5097225;28;20925;-67
2023/06/17 11:08:31;;;;;;;9.50;8.70;;;22.80;99.90;;;;;;5097152;28;20461;-67
2023/06/17 11:11:12;;;;;;;9.27;8.47;;;22.90;99.90;;;;;;5096814;28;20461;-67
2023/06/17 11:13:40;;;;;;;9.30;8.50;;;23.00;99.90;;;;;;5096950;28;20492;-67
2023/06/17 11:16:09;;;;;;;9.67;8.87;;;23.10;99.90;;;;;;5097147;28;20453;-67
2023/06/17 11:18:37;;;;;;;10.10;9.10;;;23.00;99.90;;;;;;5096738;28;20457;-67
2023/06/17 11:21:06;;;;;;;11.13;10.10;;;22.90;99.90;;;;;;5097216;28;20910;-67
2023/06/17 11:23:34;;;;;;;12.20;11.20;;;22.60;99.90;;;;;;5096759;28;20453;-67
2023/06/17 11:26:01;;;;;;;11.97;10.80;;;22.20;99.90;;;;;;5096605;28;20453;-67
2023/06/17 11:28:30;;;;;;;13.57;12.17;;;21.70;99.90;;;;;;5096878;28;20473;-67
2023/06/17 11:31:00;;;;;;;14.03;11.47;;;21.30;99.90;;;;;;5096667;28;20457;-66
2023/06/17 11:33:30;;;;;;;10.27;9.47;;;20.90;99.90;;;;;;5096820;28;20539;-67
2023/06/17 11:35:58;;;;;;;11.60;10.50;;;20.50;99.90;;;;;;5096766;28;20816;-67
2023/06/17 11:38:26;;;;;;;13.70;12.50;;;20.20;99.90;;;;;;5096699;28;20463;-67
2023/06/17 11:40:55;;;;;;;13.97;12.53;;;20.00;99.90;;;;;;5096389;28;20453;-67
2023/06/17 11:43:26;;;;;;;14.67;13.47;;;19.80;99.90;;;;;;5095954;28;20463;-66
2023/06/17 11:45:57;;;;;;;13.53;12.33;;;19.70;99.90;;;;;;5096528;28;20433;-67
2023/06/17 11:48:37;;;;;;;13.57;12.23;;;19.60;99.90;;;;;;5096297;28;20786;-67
2023/06/17 11:51:04;;;;;;;12.50;11.33;;;19.50;99.90;;;;;;5096322;28;20438;-67
2023/06/17 11:53:35;;;;;;;13.63;12.33;;;19.40;99.90;;;;;;5096302;28;20910;-66
2023/06/17 11:56:04;;;;;;;16.90;12.93;;;19.40;99.90;;;;;;5096481;28;20910;-67
2023/06/17 11:58:31;;;;;;;11.10;10.17;;;19.30;99.90;;;;;;5096186;28;20948;-67
2023/06/17 12:01:00;;;;;;;9.90;9.10;;;19.20;99.90;;;;;;5095854;28;20459;-67
2023/06/17 12:03:27;;;;;;;8.67;7.97;;;19.10;99.90;;;;;;5095758;28;20467;-67
2023/06/17 12:05:56;;;;;;;9.03;7.90;;;19.10;99.90;;;;;;5095959;28;20453;-67
2023/06/17 12:08:23;;;;;;;7.27;6.57;;;19.00;99.90;;;;;;5095779;28;20544;-66
2023/06/17 12:10:51;;;;;;;5.90;5.40;;;18.80;99.90;;;;;;5095824;28;20518;-66
2023/06/17 12:13:18;;;;;;;5.80;5.30;;;18.70;99.90;;;;;;5095103;28;20493;-66
2023/06/17 12:15:45;;;;;;;4.57;4.17;;;18.70;99.90;;;;;;5095988;28;20453;-65
2023/06/17 12:18:13;;;;;;;5.13;4.20;;;18.50;99.90;;;;;;5095396;28;20550;-67
2023/06/17 12:20:50;;;;;;;5.97;5.40;;;18.50;99.90;;;;;;5095722;28;20545;-66
2023/06/17 12:23:18;;;;;;;5.03;4.10;;;18.30;99.90;;;;;;5095886;28;20912;-66
2023/06/17 12:25:46;;;;;;;5.27;4.87;;;18.30;99.90;;;;;;5095782;28;20497;-66
2023/06/17 12:28:14;;;;;;;5.83;5.33;;;18.30;99.90;;;;;;5095693;28;20775;-66
2023/06/17 12:30:40;;;;;;;8.43;6.00;;;18.40;99.90;;;;;;5095212;28;20538;-67
2023/06/17 12:33:07;;;;;;;6.77;6.00;;;18.50;99.90;;;;;;5095526;28;20473;-67
2023/06/17 12:35:35;;;;;;;7.43;5.83;;;18.50;99.90;;;;;;5095103;28;20489;-67